METAR Data
IDs: Format: Raw Decoded Include TAF

Data at: 0116 UTC 06 Dec 2019

KPUC 060053Z AUTO 13003KT 10SM OVC047 02/01 A3020 RMK AO2 SLP257 T00170006
KPUC 052353Z AUTO 00000KT 10SM OVC049 02/01 A3019 RMK AO2 SLP251 T00220011 10033 20011 53013
KPUC 052301Z AUTO 10SM FEW007 OVC048 03/01 A3017 RMK AO2 T00280011
KPUC 052253Z AUTO 10SM OVC049 03/01 A3016 RMK AO2 SLP237 T00280011
KPUC 052208Z AUTO 10SM FEW007 OVC047 03/01 A3015 RMK AO2 T00280006
KPUC 052153Z AUTO 10SM FEW010 OVC047 03/01 A3014 RMK AO2 SLP233 T00280011
KPUC 052151Z AUTO 10SM SCT010 OVC047 03/01 A3014 RMK AO2
KPUC 052133Z AUTO 00000KT 10SM FEW006 OVC010 02/01 A3013 RMK AO2 T00220011
KPUC 052123Z AUTO 00000KT 10SM BKN011 OVC048 03/01 A3013 RMK AO2 T00280011
KPUC 052053Z AUTO 00000KT 10SM FEW009 OVC048 02/01 A3012 RMK AO2 SLP226 T00220011 53005
KPUC 052046Z AUTO 12003KT 10SM FEW005 FEW009 OVC048 02/01 A3012 RMK AO2 T00220011
KPUC 052018Z AUTO 15003KT 10SM OVC005 02/01 A3011 RMK AO2 CIG 001V008 T00170011
KPUC 051953Z AUTO 10004KT 10SM OVC003 02/01 A3010 RMK AO2 CIG 001V006 SLP219 T00220011
KPUC 051853Z AUTO 00000KT 9SM OVC001 01/01 A3011 RMK AO2 SLP225 T00110006
KPUC 051838Z AUTO 16003KT 8SM OVC001 01/01 A3010 RMK AO2 T00110006
KPUC 051830Z AUTO 00000KT 2SM BR OVC001 01/01 A3010 RMK AO2 T00110006
KPUC 051821Z AUTO 00000KT 5SM BR OVC001 01/01 A3010 RMK AO2 T00110011
KPUC 051812Z AUTO 00000KT 2 1/2SM BR OVC001 01/01 A3010 RMK AO2 T00110011
KPUC 051753Z AUTO 00000KT 4SM BR OVC001 01/01 A3010 RMK AO2 SLP222 60000 T00110011 10011 20000 51024
KPUC 051727Z AUTO 00000KT 5SM BR OVC001 01/01 A3009 RMK AO2 T00110011
KPUC 051719Z AUTO 00000KT 2SM BR OVC001 01/01 A3009 RMK AO2 VIS 1V5 T00110006
KPUC 051653Z AUTO 06003KT 1/2SM FG OVC002 01/01 A3008 RMK AO2 SLP215 T00060006
KPUC 051553Z AUTO 09004KT 1/4SM FG BKN003 OVC019 00/00 A3004 RMK AO2 SLP202 T00000000
KPUC 051510Z AUTO 06003KT 3/4SM BR BKN001 OVC009 00/00 A3002 RMK AO2 T00000000
KPUC 051458Z AUTO 08003KT 1 3/4SM BR BKN002 OVC009 00/00 A3002 RMK AO2 T00000000
KPUC 051453Z AUTO 09003KT 9SM SCT002 OVC009 00/00 A3002 RMK AO2 SLP190 60000 T00000000 53020
KPUC 051407Z AUTO 00000KT 9SM OVC006 00/00 A3000 RMK AO2 T00000000
KPUC 051353Z AUTO 07003KT 4SM BR BKN002 OVC008 00/M01 A2999 RMK AO2 SNB27E42 SLP180 P0000 T00001006
KPUC 051344Z AUTO 04003KT 2SM BR OVC002 00/M01 A2999 RMK AO2 SNB27E42 P0000 T00001006
KPUC 051336Z AUTO 00000KT 1 1/2SM -SN BR OVC002 00/M01 A2998 RMK AO2 SNB27 P0000 T00001006
KPUC 051253Z AUTO 00000KT 1/2SM FG VV003 00/M01 A2996 RMK AO2 SNE31 SLP171 P0000 T00001006
KPUC 051153Z AUTO 00000KT 1/4SM -SN FG VV001 00/M01 A2995 RMK AO2 SNB42 SLP163 P0000 60006 70020 T00001006 10006 20000 53007
KPUC 051136Z AUTO 00000KT 1/2SM FG VV001 00/M01 A2994 RMK AO2 T00001006
KPUC 051126Z AUTO 00000KT 1 1/2SM BR OVC003 00/00 A2994 RMK AO2 T00000000
KPUC 051116Z AUTO 13003KT 10SM BKN004 OVC017 00/00 A2994 RMK AO2 T00000000
KPUC 051053Z AUTO 07004KT 10SM BKN008 OVC015 00/M01 A2993 RMK AO2 SLP155 T00001006
KPUC 051039Z AUTO 00000KT 10SM BKN008 OVC017 00/00 A2993 RMK AO2 CIG 006V011 T00000000
KPUC 051009Z AUTO 06004KT 9SM FEW004 OVC016 00/M01 A2993 RMK AO2 T00001006
KPUC 050953Z AUTO 03004KT 5SM BR SCT004 OVC014 00/M01 A2993 RMK AO2 SNB0855E31 SLP151 P0001 T00001006
KPUC 050947Z AUTO 01003KT 3SM BR SCT004 OVC014 00/M01 A2993 RMK AO2 SNB0855E31 P0001
KPUC 050942Z AUTO 01003KT 1 1/2SM BR BKN004 OVC014 00/M01 A2993 RMK AO2 SNB0855E31 P0001 T00001006
KPUC 050859Z AUTO 00000KT 1/2SM -SN FG BKN003 OVC014 00/M01 A2992 RMK AO2 SNB55 P0000 T00001006
KPUC 050853Z AUTO 00000KT 1SM BR SCT003 OVC014 00/M01 A2992 RMK AO2 SNE07 SLP148 P0000 60005 T00001006 55003
KPUC 050850Z AUTO 00000KT 3SM BR FEW003 OVC014 00/M01 A2992 RMK AO2 SNE07 P0000
KPUC 050753Z AUTO 00000KT 4SM -SN BR SCT019 BKN024 OVC040 00/M01 A2992 RMK AO2 SLP150 P0002 T00001006
KPUC 050749Z AUTO 00000KT 3SM -SN BR SCT019 OVC023 00/M01 A2992 RMK AO2 P0002
KPUC 050653Z AUTO 00000KT 1 1/4SM -SN BR OVC019 00/M01 A2993 RMK AO2 SLP155 P0003 T00001006 400561028
KPUC 050553Z AUTO 00000KT 1 1/4SM -SN BR OVC015 00/M01 A2994 RMK AO2 SLP161 P0005 60014 T00001006 10028 20000 58010
KPUC 050546Z AUTO 00000KT 1 3/4SM -SN BR OVC015 00/M01 A2994 RMK AO2 P0004 T00001006
KPUC 050534Z AUTO 00000KT 1 1/4SM -SN BR BKN010 OVC017 00/M01 A2994 RMK AO2 P0004 T00001006
KPUC 050525Z AUTO 00000KT 3/4SM -SN BR VV005 00/M01 A2995 RMK AO2 P0003 T00001006
KPUC 050502Z AUTO 00000KT 3/4SM -SN BR VV004 00/M01 A2995 RMK AO2 P0001 T00001006
KPUC 050453Z AUTO 00000KT 1SM -SN BR VV004 00/M01 A2995 RMK AO2 SLP166 P0009 T00001006
KPUC 050439Z AUTO 00000KT 3/4SM -SN BR VV003 00/00 A2995 RMK AO2 P0008 T00000000
KPUC 050422Z AUTO 00000KT 3/4SM -SN BR SCT001 OVC009 00/M01 A2996 RMK AO2 P0004 T00001006
KPUC 050417Z AUTO 00000KT 1SM -SN BR SCT003 OVC011 00/M01 A2996 RMK AO2 P0003 T00001006
KPUC 050408Z AUTO 00000KT 1SM -SN BR BKN010 OVC022 01/M01 A2996 RMK AO2 P0002 T00061006
KPUC 050400Z AUTO 11003KT 1 3/4SM -SN BR SCT012 OVC022 01/M01 A2997 RMK AO2 P0001 T00111006
KPUC 050353Z AUTO 10003KT 3SM -SN BR FEW016 OVC023 01/M01 A2997 RMK AO2 SNB39 SLP173 P0000 T00111006
KPUC 050303Z AUTO 08005KT 10SM BKN024 OVC035 02/M01 A2997 RMK AO2 T00221011
KPUC 050253Z AUTO 09005KT 10SM SCT024 OVC035 02/M02 A2998 RMK AO2 SLP178 T00221017 58012
KPUC 050153Z AUTO 04005KT 10SM OVC038 02/M01 A2999 RMK AO2 SLP188 T00171011
KPUC 050053Z AUTO 02005KT 10SM BKN039 OVC100 02/M02 A3001 RMK AO2 SLP189 T00171022
KPUC 042353Z AUTO 00000KT 10SM SCT039 BKN120 03/M02 A3002 RMK AO2 SLP190 T00281022 10056 20022 56013
KPUC 042253Z AUTO 22004KT 10SM CLR 04/M02 A3002 RMK AO2 SLP190 T00441022
KPUC 042153Z AUTO 00000KT 10SM CLR 06/M02 A3003 RMK AO2 SLP191 T00561022
KPUC 042053Z AUTO 14004KT 10SM CLR 05/M02 A3006 RMK AO2 SLP203 T00501022 56026
KPUC 041953Z AUTO 00000KT 10SM CLR 04/M03 A3009 RMK AO2 SLP215 T00391028
KPUC 041853Z AUTO VRB03KT 10SM CLR 04/M03 A3012 RMK AO2 SLP225 T00441033
KPUC 041753Z AUTO 00000KT 10SM OVC085 03/M03 A3015 RMK AO2 SLP240 T00281028 10028 21028 50002
KPUC 041653Z AUTO 00000KT 10SM OVC080 02/M02 A3016 RMK AO2 SLP248 T00171022
KPUC 041553Z AUTO 00000KT 10SM OVC070 01/M02 A3015 RMK AO2 SLP246 T00061022
KPUC 041453Z AUTO 02003KT 10SM SCT075 M01/M03 A3014 RMK AO2 SLP249 T10111033 56006
KPUC 041353Z AUTO 25004KT 10SM CLR M02/M03 A3015 RMK AO2 SLP254 T10171033